Time;durP1;ratioP1;P1;durP2;ratioP2;P2;SDS_P1;SDS_P2;PMS_P1;PMS_P2;Temp;Humidity;BMP_temperature;BMP_pressure;BME280_temperature;BME280_humidity;BME280_pressure;Samples;Min_cycle;Max_cycle;Signal;HPM_P1;HPM_P2
2021/01/11 00:01:45;;;;;;;105.70;53.90;;;3.90;99.50;;;;;;4967991;28;20055;-82
2021/01/11 00:04:11;;;;;;;111.13;52.85;;;3.90;99.50;;;;;;4960266;28;20039;-82
2021/01/11 00:06:42;;;;;;;98.65;50.90;;;3.90;99.50;;;;;;4963982;28;20110;-82
2021/01/11 00:09:08;;;;;;;113.75;52.10;;;3.90;99.70;;;;;;4960434;28;20416;-82
2021/01/11 00:11:35;;;;;;;115.80;52.90;;;3.90;99.80;;;;;;4966761;28;20039;-82
2021/01/11 00:14:07;;;;;;;109.90;51.65;;;3.90;99.50;;;;;;4967468;28;20081;-82
2021/01/11 00:16:33;;;;;;;114.30;51.70;;;3.90;99.50;;;;;;4965405;28;20070;-82
2021/01/11 00:18:59;;;;;;;93.25;49.03;;;3.90;99.50;;;;;;4959250;28;20054;-82
2021/01/11 00:21:26;;;;;;;100.28;50.08;;;3.90;99.50;;;;;;4965221;28;20039;-82
2021/01/11 00:23:52;;;;;;;95.25;49.92;;;3.90;99.50;;;;;;4952802;28;20745;-82
2021/01/11 00:26:17;;;;;;;93.30;46.75;;;3.90;99.30;;;;;;4969270;28;20038;-82
2021/01/11 00:28:43;;;;;;;93.07;49.58;;;3.90;99.40;;;;;;4970472;28;20058;-82
2021/01/11 00:31:10;;;;;;;98.20;50.17;;;3.90;99.30;;;;;;4969112;28;20159;-82
2021/01/11 00:33:36;;;;;;;100.18;48.45;;;3.90;99.40;;;;;;4970838;28;20442;-82
2021/01/11 00:36:03;;;;;;;91.57;46.45;;;3.90;99.40;;;;;;4962036;28;20503;-83
2021/01/11 00:38:30;;;;;;;98.80;47.88;;;3.90;99.40;;;;;;4969685;28;20058;-83
2021/01/11 00:40:56;;;;;;;90.88;46.33;;;3.90;99.40;;;;;;4946985;28;20525;-82
2021/01/11 00:43:21;;;;;;;89.50;45.70;;;3.90;99.30;;;;;;4967402;28;20071;-82
2021/01/11 00:45:47;;;;;;;79.90;44.95;;;3.90;99.30;;;;;;4966152;28;20054;-82
2021/01/11 00:48:13;;;;;;;83.72;45.72;;;3.90;99.30;;;;;;4953857;28;20076;-83
2021/01/11 00:50:39;;;;;;;97.70;45.47;;;3.90;99.30;;;;;;4961793;28;20046;-83
2021/01/11 00:53:05;;;;;;;91.65;45.92;;;3.90;99.20;;;;;;4962925;28;20114;-83
2021/01/11 00:55:31;;;;;;;91.93;46.92;;;3.90;99.20;;;;;;4962220;28;20144;-83
2021/01/11 00:57:56;;;;;;;96.47;45.58;;;3.90;99.30;;;;;;4953325;28;20389;-82
2021/01/11 01:00:24;;;;;;;93.07;45.65;;;3.90;99.30;;;;;;4962719;28;20058;-82
2021/01/11 01:02:49;;;;;;;88.45;44.97;;;3.90;99.30;;;;;;4955158;28;20043;-82
2021/01/11 01:05:15;;;;;;;83.82;43.60;;;3.90;99.20;;;;;;4957999;28;20415;-82
2021/01/11 01:07:42;;;;;;;83.57;43.47;;;3.90;99.20;;;;;;4973866;28;20074;-82
2021/01/11 01:10:10;;;;;;;80.03;41.78;;;3.90;99.30;;;;;;4974287;28;20635;-82
2021/01/11 01:12:36;;;;;;;81.82;42.40;;;3.80;99.20;;;;;;4952568;28;20074;-83
2021/01/11 01:15:02;;;;;;;93.45;44.47;;;3.90;99.30;;;;;;4975118;28;20614;-83
2021/01/11 01:17:28;;;;;;;105.78;47.03;;;3.90;99.30;;;;;;4965634;28;20214;-82
2021/01/11 01:19:54;;;;;;;94.10;46.03;;;3.90;99.30;;;;;;4969846;28;20431;-82
2021/01/11 01:22:19;;;;;;;99.15;45.22;;;3.90;99.30;;;;;;4963784;28;20031;-82
2021/01/11 01:24:45;;;;;;;102.13;45.35;;;3.80;99.30;;;;;;4968166;28;20105;-82
2021/01/11 01:27:11;;;;;;;95.85;43.47;;;3.80;99.30;;;;;;4962148;28;20058;-83
2021/01/11 01:29:36;;;;;;;94.75;43.33;;;3.80;99.30;;;;;;4972918;28;20042;-83
2021/01/11 01:32:02;;;;;;;106.40;44.17;;;3.80;99.30;;;;;;4956747;28;20062;-83
2021/01/11 01:34:28;;;;;;;89.00;45.00;;;3.80;99.30;;;;;;4970443;28;20070;-83
2021/01/11 01:36:55;;;;;;;98.25;44.55;;;3.80;99.30;;;;;;4948021;28;20114;-83
2021/01/11 01:39:21;;;;;;;104.60;46.13;;;3.90;99.30;;;;;;4967573;28;20041;-83
2021/01/11 01:41:47;;;;;;;89.20;45.38;;;3.80;99.30;;;;;;4951859;28;20854;-83
2021/01/11 01:44:13;;;;;;;99.45;44.22;;;3.90;99.40;;;;;;4970127;28;20050;-83
2021/01/11 01:46:39;;;;;;;103.22;45.42;;;3.90;99.40;;;;;;4965614;28;20031;-83
2021/01/11 01:49:05;;;;;;;102.45;45.70;;;3.80;99.40;;;;;;4967044;28;20042;-82
2021/01/11 01:51:32;;;;;;;103.90;46.35;;;3.90;99.40;;;;;;4971577;28;20043;-82
2021/01/11 01:53:59;;;;;;;86.63;41.00;;;3.90;99.30;;;;;;4949564;28;20047;-82
2021/01/11 01:56:25;;;;;;;91.90;42.70;;;3.80;99.20;;;;;;4970463;28;20100;-82
2021/01/11 01:58:52;;;;;;;94.75;42.92;;;3.90;99.20;;;;;;4964811;28;20677;-82
2021/01/11 02:01:18;;;;;;;113.50;46.78;;;3.90;99.20;;;;;;4973025;28;20047;-82
2021/01/11 02:03:43;;;;;;;106.30;46.55;;;3.80;99.20;;;;;;4963252;28;20105;-82
2021/01/11 02:06:09;;;;;;;107.03;46.13;;;3.80;99.20;;;;;;4970293;28;20038;-82
2021/01/11 02:08:45;;;;;;;90.15;43.58;;;3.90;99.30;;;;;;4945422;28;20078;-83
2021/01/11 02:11:17;;;;;;;112.72;47.20;;;3.80;99.20;;;;;;4975617;28;20041;-82
2021/01/11 02:14:07;;;;;;;97.47;46.03;;;3.90;99.30;;;;;;4952846;28;20062;-82
2021/01/11 02:17:02;;;;;;;89.40;43.85;;;3.90;99.20;;;;;;4958602;28;20035;-82
2021/01/11 02:20:18;;;;;;;94.75;45.47;;;3.90;99.20;;;;;;4960632;28;20132;-82
2021/01/11 02:23:06;;;;;;;88.90;44.50;;;3.90;99.10;;;;;;4972103;28;20114;-82
2021/01/11 02:26:05;;;;;;;98.63;46.70;;;3.90;99.10;;;;;;4953849;28;20050;-83
2021/01/11 02:29:03;;;;;;;93.55;44.15;;;3.90;99.10;;;;;;4963040;28;20490;-82
2021/01/11 02:31:31;;;;;;;87.35;43.28;;;3.90;99.10;;;;;;4953350;28;20507;-82
2021/01/11 02:33:59;;;;;;;90.10;44.33;;;3.90;99.10;;;;;;4959934;28;20047;-82
2021/01/11 02:36:26;;;;;;;92.35;46.55;;;3.90;99.10;;;;;;4955771;28;20065;-82
2021/01/11 02:38:53;;;;;;;86.75;45.80;;;3.90;99.20;;;;;;4960834;28;20121;-82
2021/01/11 02:41:19;;;;;;;93.45;46.40;;;3.90;99.10;;;;;;4966441;28;20044;-82
2021/01/11 02:43:44;;;;;;;90.13;46.03;;;3.90;99.20;;;;;;4973359;28;20050;-82
2021/01/11 02:46:11;;;;;;;82.65;46.03;;;3.90;99.10;;;;;;4966903;28;20506;-82
2021/01/11 02:48:56;;;;;;;79.97;42.47;;;3.90;99.10;;;;;;4970253;28;20054;-82
2021/01/11 02:51:21;;;;;;;72.47;38.47;;;3.90;98.80;;;;;;4965110;28;20030;-82
2021/01/11 02:54:14;;;;;;;77.25;43.22;;;3.90;99.00;;;;;;4972538;28;20494;-82
2021/01/11 02:56:56;;;;;;;93.97;46.28;;;3.90;99.00;;;;;;4961822;28;20047;-82
2021/01/11 02:59:34;;;;;;;102.80;47.05;;;3.90;99.10;;;;;;4971754;28;20046;-82
2021/01/11 03:02:07;;;;;;;81.32;44.65;;;3.90;99.10;;;;;;4967375;28;20127;-82
2021/01/11 03:04:34;;;;;;;93.25;46.58;;;3.90;99.10;;;;;;4964271;28;20125;-82
2021/01/11 03:07:02;;;;;;;90.57;47.45;;;3.90;99.00;;;;;;4962214;28;20042;-82
2021/01/11 03:09:28;;;;;;;75.78;45.70;;;3.90;99.10;;;;;;4973715;28;20050;-82
2021/01/11 03:11:56;;;;;;;84.35;44.35;;;3.90;99.10;;;;;;4967675;28;20096;-82
2021/01/11 03:14:23;;;;;;;101.95;49.53;;;3.90;99.10;;;;;;4968908;28;20047;-82
2021/01/11 03:16:48;;;;;;;89.45;45.47;;;3.90;99.10;;;;;;4964078;28;20043;-82
2021/01/11 03:19:14;;;;;;;82.90;46.40;;;3.90;99.10;;;;;;4952709;28;20101;-82
2021/01/11 03:21:40;;;;;;;102.18;48.72;;;3.90;99.10;;;;;;4962489;28;20041;-82
2021/01/11 03:24:07;;;;;;;90.20;48.95;;;3.90;99.10;;;;;;4967636;28;20431;-82
2021/01/11 03:26:34;;;;;;;113.00;51.10;;;3.90;99.10;;;;;;4958065;28;20103;-81
2021/01/11 03:29:00;;;;;;;80.57;44.90;;;3.90;99.20;;;;;;4952693;28;20101;-81
2021/01/11 03:31:26;;;;;;;85.60;45.70;;;3.90;99.00;;;;;;4960541;28;20473;-81
2021/01/11 03:33:52;;;;;;;80.38;45.60;;;3.90;99.10;;;;;;4967774;28;20074;-82
2021/01/11 03:36:18;;;;;;;81.57;45.92;;;4.00;99.20;;;;;;4939901;28;20082;-82
2021/01/11 03:38:43;;;;;;;82.05;45.78;;;3.80;99.20;;;;;;4956406;28;20085;-82
2021/01/11 03:41:10;;;;;;;98.18;49.38;;;4.00;99.20;;;;;;4961285;28;20035;-82
2021/01/11 03:43:40;;;;;;;95.78;49.67;;;4.00;99.30;;;;;;4965673;28;20045;-82
2021/01/11 03:46:08;;;;;;;102.60;49.88;;;3.90;99.20;;;;;;4965384;28;20066;-82
2021/01/11 03:48:34;;;;;;;90.15;46.15;;;4.00;99.20;;;;;;4963151;28;20114;-82
2021/01/11 03:51:01;;;;;;;89.43;46.08;;;3.90;99.10;;;;;;4969209;28;20118;-82
2021/01/11 03:53:26;;;;;;;85.57;47.03;;;3.90;99.20;;;;;;4958795;28;20051;-82
2021/01/11 03:55:53;;;;;;;94.50;48.15;;;4.00;99.20;;;;;;4960665;28;20047;-82
2021/01/11 03:58:19;;;;;;;104.28;48.58;;;4.00;99.20;;;;;;4966046;28;20418;-82
2021/01/11 04:00:46;;;;;;;100.63;47.78;;;3.90;99.10;;;;;;4952654;28;20055;-82
2021/01/11 04:03:12;;;;;;;90.57;47.25;;;4.00;99.20;;;;;;4941145;28;20054;-82
2021/01/11 04:05:43;;;;;;;91.53;48.20;;;4.00;99.10;;;;;;4966001;28;20090;-82
2021/01/11 04:08:08;;;;;;;84.05;46.22;;;4.00;99.10;;;;;;4961927;28;20047;-82
2021/01/11 04:10:34;;;;;;;92.60;46.80;;;4.00;99.10;;;;;;4966184;28;20038;-82
2021/01/11 04:13:00;;;;;;;93.68;48.90;;;4.00;99.10;;;;;;4961519;28;20526;-82
2021/01/11 04:15:26;;;;;;;98.05;47.60;;;4.00;99.10;;;;;;4967719;28;20034;-82
2021/01/11 04:17:52;;;;;;;104.38;48.85;;;4.00;99.10;;;;;;4961295;28;20535;-83
2021/01/11 04:20:17;;;;;;;99.68;48.97;;;4.00;99.10;;;;;;4970803;28;20039;-82
2021/01/11 04:22:43;;;;;;;104.68;49.53;;;4.00;99.10;;;;;;4958526;28;20051;-82
2021/01/11 04:25:10;;;;;;;111.35;49.75;;;4.00;99.10;;;;;;4968250;28;20043;-82
2021/01/11 04:27:36;;;;;;;100.35;46.65;;;4.00;99.10;;;;;;4953165;28;20063;-82
2021/01/11 04:30:03;;;;;;;124.97;53.70;;;4.00;99.10;;;;;;4959000;28;20097;-81
2021/01/11 04:32:29;;;;;;;106.95;52.05;;;4.00;99.10;;;;;;4967279;28;20033;-82
2021/01/11 04:34:54;;;;;;;89.18;44.97;;;4.00;99.10;;;;;;4968058;28;20140;-82
2021/01/11 04:37:20;;;;;;;95.38;49.22;;;4.00;98.90;;;;;;4966964;28;20046;-82
2021/01/11 04:39:46;;;;;;;92.65;47.90;;;4.00;99.00;;;;;;4954191;28;20083;-82
2021/01/11 04:42:16;;;;;;;125.13;51.25;;;4.00;98.90;;;;;;4963519;28;20102;-82
2021/01/11 04:44:42;;;;;;;106.82;51.05;;;4.00;98.90;;;;;;4964672;28;20069;-83
2021/01/11 04:47:11;;;;;;;123.63;51.03;;;4.00;99.00;;;;;;4971586;28;20042;-82
2021/01/11 04:49:37;;;;;;;117.03;50.92;;;4.00;99.00;;;;;;4958896;28;20047;-83
2021/01/11 04:52:05;;;;;;;102.40;47.65;;;4.00;99.00;;;;;;4961224;28;20063;-83
2021/01/11 04:54:33;;;;;;;106.32;48.88;;;4.00;99.00;;;;;;4947753;28;20055;-84
2021/01/11 04:57:01;;;;;;;108.85;50.90;;;4.00;99.00;;;;;;4961778;28;20046;-83
2021/01/11 04:59:28;;;;;;;110.90;51.67;;;4.00;99.00;;;;;;4967609;28;20487;-81
2021/01/11 05:01:56;;;;;;;112.45;50.15;;;4.00;99.00;;;;;;4978468;28;20046;-82
2021/01/11 05:04:22;;;;;;;112.05;51.83;;;4.00;98.80;;;;;;4954073;28;20050;-82
2021/01/11 05:06:48;;;;;;;119.78;52.85;;;3.90;98.90;;;;;;4971294;28;20058;-82
2021/01/11 05:09:17;;;;;;;108.72;48.78;;;3.90;98.90;;;;;;4975742;28;20539;-82
2021/01/11 05:11:43;;;;;;;103.63;52.00;;;3.90;98.90;;;;;;4966115;28;20075;-82
2021/01/11 05:14:15;;;;;;;140.43;54.00;;;4.00;98.90;;;;;;4970535;28;20126;-82
2021/01/11 05:16:41;;;;;;;102.85;50.92;;;3.90;98.90;;;;;;4966072;28;20061;-81
2021/01/11 05:19:24;;;;;;;110.07;51.25;;;4.00;98.90;;;;;;4968858;28;20403;-81
2021/01/11 05:21:51;;;;;;;100.28;45.35;;;4.10;98.90;;;;;;4965171;28;20048;-82
2021/01/11 05:24:32;;;;;;;99.50;47.60;;;3.90;98.80;;;;;;4974428;28;20466;-82
2021/01/11 05:27:09;;;;;;;98.82;49.67;;;4.00;98.90;;;;;;4949676;28;20087;-82
2021/01/11 05:29:36;;;;;;;113.47;51.05;;;4.00;98.90;;;;;;4972555;28;20097;-81
2021/01/11 05:32:07;;;;;;;117.10;53.05;;;3.90;98.90;;;;;;4964884;28;20053;-81
2021/01/11 05:34:52;;;;;;;106.40;49.30;;;4.00;98.90;;;;;;4970579;28;20478;-81
2021/01/11 05:37:35;;;;;;;112.32;50.80;;;3.90;98.80;;;;;;4966350;28;20065;-82
2021/01/11 05:40:04;;;;;;;109.35;49.83;;;4.00;98.80;;;;;;4959936;28;20114;-82
2021/01/11 05:42:30;;;;;;;114.65;54.83;;;3.90;98.80;;;;;;4964361;28;20042;-82
2021/01/11 05:45:13;;;;;;;118.28;54.85;;;3.90;98.70;;;;;;4970822;28;20054;-82
2021/01/11 05:47:55;;;;;;;116.68;53.05;;;3.90;98.70;;;;;;4960239;28;20055;-82
2021/01/11 05:50:21;;;;;;;136.23;55.20;;;3.90;98.80;;;;;;4956831;28;20035;-82
2021/01/11 05:52:47;;;;;;;123.40;55.78;;;3.90;98.80;;;;;;4961948;28;20404;-82
2021/01/11 05:55:20;;;;;;;131.75;57.25;;;3.90;98.80;;;;;;4956405;28;20050;-82
2021/01/11 05:57:54;;;;;;;134.70;58.42;;;3.90;98.80;;;;;;4962293;28;20059;-82
2021/01/11 06:00:22;;;;;;;132.20;56.83;;;3.90;98.90;;;;;;4967933;28;20046;-82
2021/01/11 06:02:48;;;;;;;123.82;57.17;;;3.90;98.90;;;;;;4964054;28;20054;-82
2021/01/11 06:05:17;;;;;;;123.10;56.22;;;3.90;98.90;;;;;;4966854;28;20136;-82
2021/01/11 06:07:44;;;;;;;134.98;57.58;;;3.90;98.90;;;;;;4960904;28;20050;-82
2021/01/11 06:10:12;;;;;;;143.20;59.03;;;3.80;98.90;;;;;;4970107;28;20046;-83
2021/01/11 06:12:40;;;;;;;125.13;57.42;;;3.90;98.80;;;;;;4965726;28;20039;-82
2021/01/11 06:15:15;;;;;;;116.90;57.05;;;3.90;98.80;;;;;;4950767;29;20050;-82
2021/01/11 06:17:42;;;;;;;;;;;3.80;98.70;;;;;;4964633;28;20065;-82
2021/01/11 06:20:12;;;;;;;129.93;55.75;;;3.80;98.50;;;;;;4954788;28;19960;-83
2021/01/11 06:22:44;;;;;;;126.03;56.80;;;3.80;98.70;;;;;;4961168;28;20074;-82
2021/01/11 06:25:19;;;;;;;152.10;59.95;;;3.80;98.80;;;;;;4972219;28;20093;-82
2021/01/11 06:28:02;;;;;;;131.57;56.80;;;3.80;98.80;;;;;;4962276;28;20043;-82
2021/01/11 06:30:38;;;;;;;102.45;43.92;;;3.80;98.80;;;;;;4957191;28;20042;-82
2021/01/11 06:33:06;;;;;;;116.63;54.35;;;3.80;98.70;;;;;;4964223;28;20739;-83
2021/01/11 06:35:53;;;;;;;114.00;54.10;;;3.80;98.70;;;;;;4967149;28;20054;-83
2021/01/11 06:38:25;;;;;;;106.72;49.85;;;3.80;98.60;;;;;;4952029;28;20605;-83
2021/01/11 06:41:03;;;;;;;93.15;43.85;;;3.70;98.60;;;;;;4971738;28;20066;-83
2021/01/11 06:43:51;;;;;;;138.25;57.25;;;3.70;98.60;;;;;;4964573;28;20122;-83
2021/01/11 06:46:29;;;;;;;135.13;57.97;;;3.70;98.70;;;;;;4967247;28;20103;-83
2021/01/11 06:49:03;;;;;;;119.50;50.70;;;3.70;98.70;;;;;;4950400;28;20455;-83
2021/01/11 06:51:51;;;;;;;146.20;58.92;;;3.70;98.70;;;;;;4971569;28;20106;-83
2021/01/11 06:54:18;;;;;;;123.50;55.95;;;3.70;98.70;;;;;;4964692;28;20433;-83
2021/01/11 06:56:45;;;;;;;139.05;55.85;;;3.70;98.70;;;;;;4972187;28;20053;-83
2021/01/11 06:59:18;;;;;;;160.05;61.13;;;3.70;98.70;;;;;;4956915;28;20074;-83
2021/01/11 07:01:45;;;;;;;159.55;61.08;;;3.70;98.70;;;;;;4971195;28;20043;-84
2021/01/11 07:04:32;;;;;;;130.90;53.25;;;3.70;98.70;;;;;;4949989;28;20562;-83
2021/01/11 07:07:01;;;;;;;155.75;61.20;;;3.70;98.70;;;;;;4950916;28;20043;-82
2021/01/11 07:09:29;;;;;;;158.95;61.78;;;3.70;98.80;;;;;;4963012;28;20508;-83
2021/01/11 07:12:03;;;;;;;157.95;57.47;;;3.70;98.70;;;;;;4973997;28;20045;-82
2021/01/11 07:15:12;;;;;;;138.95;59.15;;;3.60;98.60;;;;;;4960992;28;20047;-82
2021/01/11 07:17:37;;;;;;;150.30;59.42;;;3.60;98.60;;;;;;4968726;28;20058;-86
2021/01/11 07:20:06;;;;;;;168.98;63.72;;;3.70;98.70;;;;;;4959531;28;20411;-84
2021/01/11 07:22:32;;;;;;;177.65;62.28;;;3.60;98.60;;;;;;4966938;28;20469;-85
2021/01/11 07:24:57;;;;;;;163.85;58.17;;;3.60;98.60;;;;;;4959458;28;20125;-84
2021/01/11 07:27:23;;;;;;;156.45;60.55;;;3.60;98.60;;;;;;4968500;28;20612;-84
2021/01/11 07:29:49;;;;;;;161.98;57.67;;;3.50;98.60;;;;;;4950747;28;20082;-84
2021/01/11 07:32:15;;;;;;;170.77;58.72;;;3.50;98.60;;;;;;4947549;28;20055;-84
2021/01/11 07:34:40;;;;;;;172.10;62.63;;;3.50;98.60;;;;;;4970090;28;20043;-84
2021/01/11 07:37:13;;;;;;;168.95;60.28;;;3.50;98.70;;;;;;4960583;28;20113;-83
2021/01/11 07:39:40;;;;;;;156.48;60.78;;;3.50;98.70;;;;;;4950416;28;20059;-84
2021/01/11 07:42:07;;;;;;;163.32;57.88;;;3.50;98.70;;;;;;4948924;28;20051;-83
2021/01/11 07:44:39;;;;;;;178.45;62.33;;;3.50;98.70;;;;;;4972183;28;20078;-84
2021/01/11 07:47:10;;;;;;;145.40;56.20;;;3.50;98.80;;;;;;4963852;28;20121;-84
2021/01/11 07:49:41;;;;;;;175.80;60.63;;;3.50;98.70;;;;;;4967671;28;20039;-84
2021/01/11 07:52:09;;;;;;;158.48;59.97;;;3.50;98.80;;;;;;4940481;28;20043;-84
2021/01/11 07:54:36;;;;;;;163.52;56.95;;;3.50;98.80;;;;;;4975423;28;20118;-84
2021/01/11 07:57:02;;;;;;;152.82;55.42;;;3.50;98.70;;;;;;4962417;28;20568;-84
2021/01/11 07:59:28;;;;;;;183.45;59.92;;;3.50;98.70;;;;;;4968352;28;20051;-83
2021/01/11 08:01:56;;;;;;;173.90;62.67;;;3.50;98.80;;;;;;4959745;28;20723;-84
2021/01/11 08:04:22;;;;;;;188.70;64.65;;;3.50;98.80;;;;;;4964757;28;20047;-84
2021/01/11 08:06:52;;;;;;;161.68;58.40;;;3.50;98.80;;;;;;4957472;28;20058;-84
2021/01/11 08:09:20;;;;;;;170.85;59.70;;;3.50;98.80;;;;;;4967566;28;20045;-84
2021/01/11 08:11:46;;;;;;;175.48;60.17;;;3.50;98.90;;;;;;4948277;28;20122;-84
2021/01/11 08:14:12;;;;;;;160.70;60.08;;;3.50;98.90;;;;;;4961346;28;20054;-87
2021/01/11 08:16:44;;;;;;;189.55;63.50;;;3.50;99.00;;;;;;4966014;28;20051;-85
2021/01/11 08:19:10;;;;;;;184.65;63.30;;;3.50;99.00;;;;;;4962252;28;20549;-83
2021/01/11 08:21:38;;;;;;;169.00;62.60;;;3.50;99.00;;;;;;4949875;28;20046;-84
2021/01/11 08:24:06;;;;;;;167.07;62.33;;;3.50;99.00;;;;;;4956652;28;20378;-84
2021/01/11 08:26:37;;;;;;;169.35;59.70;;;3.60;99.10;;;;;;4967390;28;20039;-84
2021/01/11 08:29:03;;;;;;;169.85;60.70;;;3.50;99.00;;;;;;4959173;28;20035;-83
2021/01/11 08:31:29;;;;;;;188.50;63.63;;;3.60;99.00;;;;;;4965719;28;20097;-83
2021/01/11 08:33:56;;;;;;;162.85;59.03;;;3.60;99.00;;;;;;4948370;28;20055;-83
2021/01/11 08:36:25;;;;;;;142.55;59.08;;;3.60;99.10;;;;;;4970479;28;20053;-83
2021/01/11 08:39:06;;;;;;;161.60;60.97;;;3.60;99.10;;;;;;4941108;28;20164;-83
2021/01/11 08:41:34;;;;;;;156.75;63.28;;;3.70;99.10;;;;;;4969795;28;20506;-83
2021/01/11 08:44:00;;;;;;;158.75;64.40;;;3.60;99.10;;;;;;4950328;28;20047;-83
2021/01/11 08:46:55;;;;;;;152.80;61.15;;;3.70;99.10;;;;;;4954196;28;20155;-83
2021/01/11 08:49:21;;;;;;;141.77;58.47;;;3.70;99.10;;;;;;4965287;28;20061;-83
2021/01/11 08:51:48;;;;;;;169.55;62.78;;;3.80;99.10;;;;;;4952213;28;20054;-83
2021/01/11 08:54:28;;;;;;;152.52;59.17;;;3.70;99.10;;;;;;4962366;28;20042;-83
2021/01/11 08:56:59;;;;;;;164.05;64.85;;;3.70;99.10;;;;;;4967368;28;20086;-83
2021/01/11 08:59:25;;;;;;;168.15;65.28;;;3.80;99.20;;;;;;4961254;28;20066;-84
2021/01/11 09:01:52;;;;;;;145.98;59.17;;;3.80;99.10;;;;;;4959652;28;20138;-83
2021/01/11 09:04:32;;;;;;;133.07;58.15;;;3.90;99.10;;;;;;4945210;28;20038;-83
2021/01/11 09:07:07;;;;;;;127.18;57.35;;;3.90;99.10;;;;;;4971956;28;20038;-83
2021/01/11 09:09:33;;;;;;;143.98;62.85;;;3.80;99.40;;;;;;4959053;28;20043;-83
2021/01/11 09:12:05;;;;;;;155.25;64.13;;;3.90;99.10;;;;;;4954542;28;20042;-83
2021/01/11 09:14:32;;;;;;;148.15;65.03;;;3.90;99.20;;;;;;4965661;28;20042;-83
2021/01/11 09:17:04;;;;;;;120.90;59.88;;;3.90;99.10;;;;;;4967582;28;20054;-83
2021/01/11 09:19:31;;;;;;;92.85;44.80;;;3.90;99.10;;;;;;4944590;28;20059;-83
2021/01/11 09:22:00;;;;;;;131.80;61.67;;;3.90;99.00;;;;;;4967350;28;20040;-83
2021/01/11 09:24:27;;;;;;;121.97;63.05;;;3.90;99.00;;;;;;4943570;28;20047;-83
2021/01/11 09:26:53;;;;;;;118.45;59.92;;;4.00;99.10;;;;;;4964672;28;20050;-84
2021/01/11 09:29:19;;;;;;;103.85;59.17;;;4.00;99.10;;;;;;4959729;28;20114;-83
2021/01/11 09:31:45;;;;;;;112.93;59.47;;;4.00;99.00;;;;;;4967470;28;20480;-84
2021/01/11 09:34:11;;;;;;;111.75;60.70;;;4.00;99.00;;;;;;4966665;28;20049;-83
2021/01/11 09:36:38;;;;;;;116.15;59.15;;;4.00;99.10;;;;;;4964577;28;20105;-83
2021/01/11 09:39:10;;;;;;;95.68;53.65;;;4.00;98.90;;;;;;4960844;28;20039;-83
2021/01/11 09:41:46;;;;;;;103.35;57.75;;;4.00;98.90;;;;;;4944130;28;20039;-83
2021/01/11 09:44:12;;;;;;;108.22;59.63;;;4.10;98.90;;;;;;4972132;28;20061;-83
2021/01/11 09:46:49;;;;;;;116.53;59.58;;;4.10;99.00;;;;;;4967149;28;20039;-83
2021/01/11 09:49:16;;;;;;;91.28;55.88;;;4.10;99.00;;;;;;4969642;28;20031;-83
2021/01/11 09:51:42;;;;;;;87.10;49.45;;;4.10;98.80;;;;;;4963782;28;20055;-83
2021/01/11 09:54:08;;;;;;;94.93;54.78;;;4.10;98.70;;;;;;4966432;28;20047;-83
2021/01/11 09:56:36;;;;;;;96.35;56.03;;;4.10;98.60;;;;;;4960124;28;20183;-83
2021/01/11 09:59:03;;;;;;;79.18;44.60;;;4.10;98.60;;;;;;4952911;28;20578;-83
2021/01/11 10:01:38;;;;;;;91.88;54.03;;;4.10;98.60;;;;;;4962431;28;20059;-83
2021/01/11 10:04:05;;;;;;;92.03;53.92;;;4.20;98.60;;;;;;4975525;28;20197;-83
2021/01/11 10:06:38;;;;;;;84.70;50.80;;;4.00;98.60;;;;;;4965604;28;20118;-83
2021/01/11 10:09:05;;;;;;;72.03;45.83;;;4.20;98.60;;;;;;4971118;28;20039;-84
2021/01/11 10:11:31;;;;;;;78.93;51.35;;;4.20;98.50;;;;;;4963375;28;20495;-84
2021/01/11 10:13:57;;;;;;;85.20;53.45;;;4.10;98.50;;;;;;4974197;28;20121;-85
2021/01/11 10:16:23;;;;;;;88.20;54.47;;;4.20;98.50;;;;;;4967050;28;20121;-85
2021/01/11 10:18:48;;;;;;;95.45;54.70;;;4.20;98.80;;;;;;4954661;28;20062;-83
2021/01/11 10:21:14;;;;;;;72.05;47.17;;;4.20;98.50;;;;;;4967271;28;20050;-85
2021/01/11 10:23:40;;;;;;;95.05;54.85;;;4.20;98.40;;;;;;4957319;28;20063;-85
2021/01/11 10:26:06;;;;;;;77.93;50.72;;;4.20;98.50;;;;;;4967013;28;20042;-86
2021/01/11 10:28:31;;;;;;;67.03;45.80;;;4.30;98.50;;;;;;4959122;28;20058;-85
2021/01/11 10:30:57;;;;;;;76.95;49.50;;;4.20;98.30;;;;;;4970953;28;20550;-84
2021/01/11 10:33:23;;;;;;;72.78;48.58;;;4.30;98.40;;;;;;4947677;28;20051;-84
2021/01/11 10:35:56;;;;;;;63.22;44.17;;;4.30;98.40;;;;;;4951244;28;20061;-84
2021/01/11 10:38:22;;;;;;;68.93;47.53;;;4.30;98.30;;;;;;4962495;28;20054;-84
2021/01/11 10:40:47;;;;;;;66.32;47.72;;;4.30;98.20;;;;;;4969033;28;20431;-84
2021/01/11 10:43:14;;;;;;;58.75;40.65;;;4.30;98.20;;;;;;4965754;28;20049;-83
2021/01/11 10:45:39;;;;;;;63.92;43.50;;;4.30;98.10;;;;;;4966216;28;20476;-83
2021/01/11 10:48:06;;;;;;;59.60;44.05;;;4.30;98.10;;;;;;4945551;28;20059;-83
2021/01/11 10:50:31;;;;;;;65.93;45.80;;;4.40;98.00;;;;;;4965780;28;20487;-84
2021/01/11 10:52:57;;;;;;;58.30;42.78;;;4.40;98.00;;;;;;4929083;28;20050;-85
2021/01/11 10:55:25;;;;;;;58.15;41.33;;;4.40;97.90;;;;;;4951836;28;20062;-85
2021/01/11 10:57:51;;;;;;;49.22;34.38;;;4.30;97.90;;;;;;4951739;28;20058;-84
2021/01/11 11:00:21;;;;;;;57.60;40.30;;;4.40;97.80;;;;;;4961073;28;20042;-83
2021/01/11 11:02:48;;;;;;;62.70;44.92;;;4.40;97.90;;;;;;4968523;28;20729;-82
2021/01/11 11:05:14;;;;;;;66.57;45.25;;;4.40;98.00;;;;;;4958259;28;20078;-83
2021/01/11 11:07:40;;;;;;;51.90;36.00;;;4.40;97.90;;;;;;4937381;28;20047;-83
2021/01/11 11:10:07;;;;;;;59.83;42.65;;;4.40;97.70;;;;;;4965348;28;20039;-83
2021/01/11 11:12:34;;;;;;;45.72;34.92;;;4.40;97.90;;;;;;4951744;28;20031;-86
2021/01/11 11:15:02;;;;;;;54.60;42.25;;;4.40;97.80;;;;;;4936306;28;20397;-86
2021/01/11 11:17:29;;;;;;;59.15;42.13;;;4.40;97.90;;;;;;4943257;29;20083;-84
2021/01/11 11:19:55;;;;;;;59.17;41.90;;;4.30;97.90;;;;;;4951215;28;20085;-84
2021/01/11 11:22:21;;;;;;;57.33;42.67;;;4.40;97.90;;;;;;4967280;28;20571;-83
2021/01/11 11:24:47;;;;;;;57.10;42.65;;;4.40;97.80;;;;;;4960116;28;20656;-84
2021/01/11 11:27:13;;;;;;;56.42;39.72;;;4.40;98.00;;;;;;4947830;28;20047;-84
2021/01/11 11:29:38;;;;;;;67.40;43.05;;;4.40;98.00;;;;;;4963032;28;20133;-83
2021/01/11 11:32:04;;;;;;;51.17;36.67;;;4.50;98.20;;;;;;4953681;28;20055;-83
2021/01/11 11:34:31;;;;;;;47.78;36.10;;;4.50;97.90;;;;;;4967474;28;20051;-83
2021/01/11 11:36:58;;;;;;;48.28;36.58;;;4.50;98.20;;;;;;4970474;28;20043;-83
2021/01/11 11:39:24;;;;;;;48.67;36.35;;;4.60;97.90;;;;;;4969292;28;20436;-83
2021/01/11 11:41:55;;;;;;;43.47;33.83;;;4.70;97.90;;;;;;4961160;28;20122;-83
2021/01/11 11:44:21;;;;;;;45.20;33.28;;;4.70;97.80;;;;;;4954914;28;20641;-84
2021/01/11 11:46:47;;;;;;;48.88;36.22;;;4.80;97.40;;;;;;4947137;28;20054;-84
2021/01/11 11:49:13;;;;;;;44.88;35.50;;;4.80;97.50;;;;;;4967202;28;20085;-84
2021/01/11 11:51:45;;;;;;;50.28;37.15;;;4.90;97.30;;;;;;4962435;28;20050;-83
2021/01/11 11:54:11;;;;;;;40.00;32.70;;;4.90;97.20;;;;;;4970484;28;20039;-83
2021/01/11 11:56:42;;;;;;;45.28;36.60;;;4.90;97.20;;;;;;4968704;28;20038;-83
2021/01/11 11:59:08;;;;;;;33.22;27.30;;;4.90;97.20;;;;;;4960966;28;20428;-83
2021/01/11 12:01:39;;;;;;;41.20;32.92;;;4.90;97.10;;;;;;4970067;28;20491;-84
2021/01/11 12:04:05;;;;;;;39.03;30.67;;;5.00;97.30;;;;;;4966808;28;20130;-83
2021/01/11 12:06:42;;;;;;;40.50;32.10;;;5.00;96.90;;;;;;4961434;28;20531;-83
2021/01/11 12:09:08;;;;;;;37.92;30.88;;;5.00;97.10;;;;;;4969098;28;20065;-84
2021/01/11 12:11:41;;;;;;;38.75;29.80;;;5.00;97.10;;;;;;4946385;28;20059;-82
2021/01/11 12:14:07;;;;;;;35.47;29.90;;;5.00;96.80;;;;;;4950240;28;20378;-83
2021/01/11 12:16:33;;;;;;;36.38;30.08;;;5.00;96.90;;;;;;4948332;28;20058;-83
2021/01/11 12:18:59;;;;;;;36.88;30.30;;;5.00;97.00;;;;;;4974565;28;20110;-83
2021/01/11 12:21:29;;;;;;;37.40;30.38;;;5.00;97.00;;;;;;4970243;28;20054;-83
2021/01/11 12:23:55;;;;;;;34.92;29.20;;;5.00;96.90;;;;;;4947564;28;20467;-83
2021/01/11 12:26:21;;;;;;;30.08;24.60;;;5.00;96.60;;;;;;4952905;28;20055;-83
2021/01/11 12:28:46;;;;;;;33.00;28.25;;;5.00;96.50;;;;;;4967343;28;20043;-83
2021/01/11 12:31:12;;;;;;;32.42;27.48;;;5.00;96.60;;;;;;4955227;28;20058;-83
2021/01/11 12:33:38;;;;;;;33.47;25.85;;;5.00;96.60;;;;;;4963085;28;20058;-83
2021/01/11 12:36:04;;;;;;;28.23;25.00;;;5.00;96.50;;;;;;4970675;28;20066;-83
2021/01/11 12:38:30;;;;;;;27.20;23.95;;;5.00;96.40;;;;;;4958523;28;20456;-83
2021/01/11 12:40:56;;;;;;;26.30;23.13;;;5.00;96.20;;;;;;4974311;28;20057;-83
2021/01/11 12:43:21;;;;;;;31.05;27.08;;;5.00;96.20;;;;;;4959032;28;20073;-83